sensor_id;sensor_type;location;lat;lon;timestamp;pressure;altitude;pressure_sealevel;temperature;humidity
16580;BME280;8402;51.466;6.806;2023-08-01T00:01:42;99619.34;;;19.86;100.00
16580;BME280;8402;51.466;6.806;2023-08-01T00:04:12;99613.88;;;19.78;100.00
16580;BME280;8402;51.466;6.806;2023-08-01T00:06:45;99618.59;;;19.78;100.00
16580;BME280;8402;51.466;6.806;2023-08-01T00:09:15;99621.34;;;19.78;100.00
16580;BME280;8402;51.466;6.806;2023-08-01T00:11:45;99612.31;;;19.81;100.00
16580;BME280;8402;51.466;6.806;2023-08-01T00:14:15;99604.41;;;19.83;100.00
16580;BME280;8402;51.466;6.806;2023-08-01T00:16:47;99602.03;;;19.85;100.00
16580;BME280;8402;51.466;6.806;2023-08-01T00:19:17;99603.63;;;19.86;100.00
16580;BME280;8402;51.466;6.806;2023-08-01T00:21:52;99600.41;;;19.91;100.00
16580;BME280;8402;51.466;6.806;2023-08-01T00:24:22;99595.78;;;19.81;100.00
16580;BME280;8402;51.466;6.806;2023-08-01T00:26:52;99580.88;;;19.75;100.00
16580;BME280;8402;51.466;6.806;2023-08-01T00:29:23;99578.97;;;19.72;100.00
16580;BME280;8402;51.466;6.806;2023-08-01T00:31:53;99562.03;;;19.70;100.00
16580;BME280;8402;51.466;6.806;2023-08-01T00:34:22;99557.31;;;19.70;100.00
16580;BME280;8402;51.466;6.806;2023-08-01T00:36:55;99568.38;;;19.63;100.00
16580;BME280;8402;51.466;6.806;2023-08-01T00:39:28;99570.34;;;19.63;100.00
16580;BME280;8402;51.466;6.806;2023-08-01T00:42:00;99556.59;;;19.66;100.00
16580;BME280;8402;51.466;6.806;2023-08-01T00:44:30;99573.88;;;19.67;100.00
16580;BME280;8402;51.466;6.806;2023-08-01T00:47:00;99561.25;;;19.73;100.00
16580;BME280;8402;51.466;6.806;2023-08-01T00:49:31;99555.03;;;19.62;100.00
16580;BME280;8402;51.466;6.806;2023-08-01T00:52:05;99549.53;;;19.62;100.00
16580;BME280;8402;51.466;6.806;2023-08-01T00:54:35;99545.22;;;19.53;100.00
16580;BME280;8402;51.466;6.806;2023-08-01T00:57:06;67388.69;;;-145.55;100.00
16580;BME280;8402;51.466;6.806;2023-08-01T00:59:37;99544.78;;;19.66;100.00
16580;BME280;8402;51.466;6.806;2023-08-01T01:02:06;99537.69;;;19.72;100.00
16580;BME280;8402;51.466;6.806;2023-08-01T01:04:38;99534.16;;;19.68;100.00
16580;BME280;8402;51.466;6.806;2023-08-01T01:07:12;99537.72;;;19.65;100.00
16580;BME280;8402;51.466;6.806;2023-08-01T01:09:42;99529.91;;;19.60;100.00
16580;BME280;8402;51.466;6.806;2023-08-01T01:12:12;99532.59;;;19.63;100.00
16580;BME280;8402;51.466;6.806;2023-08-01T01:14:42;99526.78;;;19.58;100.00
16580;BME280;8402;51.466;6.806;2023-08-01T01:17:12;99535.41;;;19.60;100.00
16580;BME280;8402;51.466;6.806;2023-08-01T01:19:42;99532.28;;;19.58;100.00
16580;BME280;8402;51.466;6.806;2023-08-01T01:22:15;67388.69;;;-145.55;100.00
16580;BME280;8402;51.466;6.806;2023-08-01T01:24:47;99527.16;;;19.52;100.00
16580;BME280;8402;51.466;6.806;2023-08-01T01:27:18;99537.78;;;19.50;100.00
16580;BME280;8402;51.466;6.806;2023-08-01T01:29:48;99530.28;;;19.55;100.00
16580;BME280;8402;51.466;6.806;2023-08-01T01:32:19;99515.84;;;19.43;100.00
16580;BME280;8402;51.466;6.806;2023-08-01T01:34:50;99517.50;;;19.30;100.00
16580;BME280;8402;51.466;6.806;2023-08-01T01:37:22;99510.47;;;19.22;100.00
16580;BME280;8402;51.466;6.806;2023-08-01T01:39:52;99509.78;;;19.04;100.00
16580;BME280;8402;51.466;6.806;2023-08-01T01:42:22;99507.00;;;19.07;100.00
16580;BME280;8402;51.466;6.806;2023-08-01T01:44:52;99492.53;;;18.96;100.00
16580;BME280;8402;51.466;6.806;2023-08-01T01:47:22;87793.06;;;18.96;100.00
16580;BME280;8402;51.466;6.806;2023-08-01T01:49:52;99483.91;;;18.94;100.00
16580;BME280;8402;51.466;6.806;2023-08-01T01:52:25;99490.94;;;19.02;100.00
16580;BME280;8402;51.466;6.806;2023-08-01T01:54:54;99486.25;;;18.95;100.00
16580;BME280;8402;51.466;6.806;2023-08-01T01:57:24;99490.94;;;19.02;100.00
16580;BME280;8402;51.466;6.806;2023-08-01T01:59:54;99501.97;;;18.95;100.00
16580;BME280;8402;51.466;6.806;2023-08-01T02:02:24;99501.59;;;18.89;100.00
16580;BME280;8402;51.466;6.806;2023-08-01T02:04:54;99507.88;;;18.90;100.00
16580;BME280;8402;51.466;6.806;2023-08-01T02:07:27;67388.69;;;-145.55;100.00
16580;BME280;8402;51.466;6.806;2023-08-01T02:09:57;99499.63;;;18.90;100.00
16580;BME280;8402;51.466;6.806;2023-08-01T02:12:26;99493.31;;;18.93;100.00
16580;BME280;8402;51.466;6.806;2023-08-01T02:14:58;99496.88;;;18.93;100.00
16580;BME280;8402;51.466;6.806;2023-08-01T02:17:28;99497.25;;;18.92;100.00
16580;BME280;8402;51.466;6.806;2023-08-01T02:19:58;99497.28;;;18.88;100.00
16580;BME280;8402;51.466;6.806;2023-08-01T02:22:30;99494.88;;;18.97;100.00
16580;BME280;8402;51.466;6.806;2023-08-01T02:25:00;99486.25;;;18.95;100.00
16580;BME280;8402;51.466;6.806;2023-08-01T02:27:30;99491.38;;;18.93;100.00
16580;BME280;8402;51.466;6.806;2023-08-01T02:30:00;99493.31;;;18.96;100.00
16580;BME280;8402;51.466;6.806;2023-08-01T02:32:32;99487.81;;;18.96;100.00
16580;BME280;8402;51.466;6.806;2023-08-01T02:35:02;99493.31;;;18.96;100.00
16580;BME280;8402;51.466;6.806;2023-08-01T02:37:34;99495.69;;;18.94;100.00
16580;BME280;8402;51.466;6.806;2023-08-01T02:40:07;99490.94;;;18.98;100.00
16580;BME280;8402;51.466;6.806;2023-08-01T02:42:38;99494.88;;;19.01;100.00
16580;BME280;8402;51.466;6.806;2023-08-01T02:45:08;99505.47;;;19.03;100.00
16580;BME280;8402;51.466;6.806;2023-08-01T02:47:38;99502.34;;;18.97;100.00
16580;BME280;8402;51.466;6.806;2023-08-01T02:50:09;99496.44;;;18.98;100.00
16580;BME280;8402;51.466;6.806;2023-08-01T02:52:41;99498.44;;;18.94;100.00
16580;BME280;8402;51.466;6.806;2023-08-01T02:55:11;99498.03;;;18.92;100.00
16580;BME280;8402;51.466;6.806;2023-08-01T02:57:41;67388.69;;;-145.55;84.52
16580;BME280;8402;51.466;6.806;2023-08-01T03:00:11;99516.88;;;18.97;100.00
16580;BME280;8402;51.466;6.806;2023-08-01T03:02:41;99508.66;;;18.90;100.00
16580;BME280;8402;51.466;6.806;2023-08-01T03:05:11;99506.28;;;18.92;100.00
16580;BME280;8402;51.466;6.806;2023-08-01T03:07:44;99509.06;;;18.85;100.00
16580;BME280;8402;51.466;6.806;2023-08-01T03:10:14;99509.09;;;18.78;100.00
16580;BME280;8402;51.466;6.806;2023-08-01T03:13:02;99520.91;;;18.75;100.00
16580;BME280;8402;51.466;6.806;2023-08-01T03:15:32;99526.41;;;18.68;100.00
16580;BME280;8402;51.466;6.806;2023-08-01T03:18:02;99526.41;;;18.68;100.00
16580;BME280;8402;51.466;6.806;2023-08-01T03:20:32;99523.25;;;18.62;100.00
16580;BME280;8402;51.466;6.806;2023-08-01T03:23:04;99534.28;;;18.59;100.00
16580;BME280;8402;51.466;6.806;2023-08-01T03:25:34;67388.69;;;-145.55;100.00
16580;BME280;8402;51.466;6.806;2023-08-01T03:28:04;99540.56;;;18.49;100.00
16580;BME280;8402;51.466;6.806;2023-08-01T03:30:36;99533.88;;;18.50;100.00
16580;BME280;8402;51.466;6.806;2023-08-01T03:33:06;99546.84;;;18.49;100.00
16580;BME280;8402;51.466;6.806;2023-08-01T03:35:36;99529.59;;;18.41;100.00
16580;BME280;8402;51.466;6.806;2023-08-01T03:38:08;99549.22;;;18.43;100.00
16580;BME280;8402;51.466;6.806;2023-08-01T03:40:38;99550.00;;;18.40;100.00
16580;BME280;8402;51.466;6.806;2023-08-01T03:43:08;99552.38;;;18.31;100.00
16580;BME280;8402;51.466;6.806;2023-08-01T03:45:39;99559.44;;;18.29;100.00
16580;BME280;8402;51.466;6.806;2023-08-01T03:48:09;99556.69;;;18.32;100.00
16580;BME280;8402;51.466;6.806;2023-08-01T03:50:39;99558.25;;;18.26;100.00
16580;BME280;8402;51.466;6.806;2023-08-01T03:53:11;99557.50;;;18.22;100.00
16580;BME280;8402;51.466;6.806;2023-08-01T03:55:43;99568.06;;;18.27;100.00
16580;BME280;8402;51.466;6.806;2023-08-01T03:58:13;99564.94;;;18.25;100.00
16580;BME280;8402;51.466;6.806;2023-08-01T04:00:43;99566.53;;;18.23;100.00
16580;BME280;8402;51.466;6.806;2023-08-01T04:03:13;99561.03;;;18.19;100.00
16580;BME280;8402;51.466;6.806;2023-08-01T04:05:43;99566.09;;;18.21;100.00
16580;BME280;8402;51.466;6.806;2023-08-01T04:08:15;99577.50;;;18.19;100.00
16580;BME280;8402;51.466;6.806;2023-08-01T04:10:45;99572.81;;;18.16;100.00
16580;BME280;8402;51.466;6.806;2023-08-01T04:13:16;99574.75;;;18.19;100.00
16580;BME280;8402;51.466;6.806;2023-08-01T04:15:46;99567.31;;;18.23;100.00
16580;BME280;8402;51.466;6.806;2023-08-01T04:18:17;99578.28;;;18.12;100.00
16580;BME280;8402;51.466;6.806;2023-08-01T04:20:47;99565.75;;;18.22;100.00
16580;BME280;8402;51.466;6.806;2023-08-01T04:23:19;67388.69;;;-145.55;100.00
16580;BME280;8402;51.466;6.806;2023-08-01T04:25:49;99565.31;;;18.41;100.00
16580;BME280;8402;51.466;6.806;2023-08-01T04:28:20;99556.28;;;18.41;100.00
16580;BME280;8402;51.466;6.806;2023-08-01T04:30:50;99559.44;;;18.32;100.00
16580;BME280;8402;51.466;6.806;2023-08-01T04:33:20;99557.09;;;18.27;100.00
16580;BME280;8402;51.466;6.806;2023-08-01T04:35:50;99558.66;;;18.28;100.00
16580;BME280;8402;51.466;6.806;2023-08-01T04:38:22;99554.75;;;18.22;100.00
16580;BME280;8402;51.466;6.806;2023-08-01T04:40:52;99564.94;;;18.25;100.00
16580;BME280;8402;51.466;6.806;2023-08-01T04:43:22;99564.97;;;18.22;100.00
16580;BME280;8402;51.466;6.806;2023-08-01T04:45:52;99569.25;;;18.26;100.00
16580;BME280;8402;51.466;6.806;2023-08-01T04:48:22;99569.66;;;18.25;100.00
16580;BME280;8402;51.466;6.806;2023-08-01T04:50:52;99562.59;;;18.24;100.00
16580;BME280;8402;51.466;6.806;2023-08-01T04:53:24;99565.75;;;18.22;100.00
16580;BME280;8402;51.466;6.806;2023-08-01T04:55:54;99564.97;;;18.22;100.00
16580;BME280;8402;51.466;6.806;2023-08-01T04:58:24;99577.50;;;18.30;100.00
16580;BME280;8402;51.466;6.806;2023-08-01T05:00:54;99580.25;;;18.23;100.00
16580;BME280;8402;51.466;6.806;2023-08-01T05:03:24;99577.50;;;18.19;100.00
16580;BME280;8402;51.466;6.806;2023-08-01T05:05:54;99572.78;;;18.23;100.00
16580;BME280;8402;51.466;6.806;2023-08-01T05:08:26;99575.91;;;18.25;100.00
16580;BME280;8402;51.466;6.806;2023-08-01T05:10:56;99585.75;;;18.15;100.00
16580;BME280;8402;51.466;6.806;2023-08-01T05:13:26;99588.47;;;18.12;100.00
16580;BME280;8402;51.466;6.806;2023-08-01T05:15:56;99589.28;;;18.16;100.00
16580;BME280;8402;51.466;6.806;2023-08-01T05:18:26;99586.13;;;18.21;100.00
16580;BME280;8402;51.466;6.806;2023-08-01T05:20:56;99596.31;;;18.17;100.00
16580;BME280;8402;51.466;6.806;2023-08-01T05:23:28;99600.25;;;18.20;100.00
16580;BME280;8402;51.466;6.806;2023-08-01T05:25:58;99596.31;;;18.17;100.00
16580;BME280;8402;51.466;6.806;2023-08-01T05:28:28;99606.50;;;18.13;100.00
16580;BME280;8402;51.466;6.806;2023-08-01T05:30:58;99597.88;;;18.11;100.00
16580;BME280;8402;51.466;6.806;2023-08-01T05:33:28;99605.72;;;18.12;100.00
16580;BME280;8402;51.466;6.806;2023-08-01T05:36:01;99594.75;;;18.16;100.00
16580;BME280;8402;51.466;6.806;2023-08-01T05:38:33;99609.66;;;18.15;100.00
16580;BME280;8402;51.466;6.806;2023-08-01T05:41:03;99608.06;;;18.14;100.00
16580;BME280;8402;51.466;6.806;2023-08-01T05:43:33;99604.97;;;18.15;100.00
16580;BME280;8402;51.466;6.806;2023-08-01T05:46:03;99610.44;;;18.19;100.00
16580;BME280;8402;51.466;6.806;2023-08-01T05:48:33;99612.00;;;18.13;100.00
16580;BME280;8402;51.466;6.806;2023-08-01T05:51:03;99603.38;;;18.11;100.00
16580;BME280;8402;51.466;6.806;2023-08-01T05:53:35;99612.00;;;18.13;100.00
16580;BME280;8402;51.466;6.806;2023-08-01T05:56:05;99617.09;;;18.11;100.00
16580;BME280;8402;51.466;6.806;2023-08-01T05:58:35;99618.28;;;18.13;100.00
16580;BME280;8402;51.466;6.806;2023-08-01T06:01:05;99615.94;;;18.12;100.00
16580;BME280;8402;51.466;6.806;2023-08-01T06:03:36;99619.84;;;18.18;100.00
16580;BME280;8402;51.466;6.806;2023-08-01T06:06:06;99618.28;;;18.24;100.00
16580;BME280;8402;51.466;6.806;2023-08-01T06:08:38;99621.03;;;18.28;100.00
16580;BME280;8402;51.466;6.806;2023-08-01T06:11:08;99622.59;;;18.25;100.00
16580;BME280;8402;51.466;6.806;2023-08-01T06:13:38;99619.06;;;18.28;100.00
16580;BME280;8402;51.466;6.806;2023-08-01T06:16:08;99627.28;;;18.28;100.00
16580;BME280;8402;51.466;6.806;2023-08-01T06:18:38;99625.72;;;18.27;100.00
16580;BME280;8402;51.466;6.806;2023-08-01T06:21:07;99622.19;;;18.27;100.00
16580;BME280;8402;51.466;6.806;2023-08-01T06:23:40;99627.31;;;18.32;100.00
16580;BME280;8402;51.466;6.806;2023-08-01T06:26:10;99631.22;;;18.27;100.00
16580;BME280;8402;51.466;6.806;2023-08-01T06:28:42;99630.84;;;18.25;100.00
16580;BME280;8402;51.466;6.806;2023-08-01T06:31:12;99637.50;;;18.31;100.00
16580;BME280;8402;51.466;6.806;2023-08-01T06:33:42;99629.25;;;18.46;100.00
16580;BME280;8402;51.466;6.806;2023-08-01T06:36:12;99629.25;;;18.46;100.00
16580;BME280;8402;51.466;6.806;2023-08-01T06:38:46;99630.03;;;18.42;100.00
16580;BME280;8402;51.466;6.806;2023-08-01T06:41:16;99620.63;;;18.43;100.00
16580;BME280;8402;51.466;6.806;2023-08-01T06:43:46;99628.47;;;18.49;100.00
16580;BME280;8402;51.466;6.806;2023-08-01T06:46:15;99628.88;;;18.43;100.00
16580;BME280;8402;51.466;6.806;2023-08-01T06:48:45;99629.25;;;18.60;100.00
16580;BME280;8402;51.466;6.806;2023-08-01T06:51:15;67388.69;;;-145.55;100.00
16580;BME280;8402;51.466;6.806;2023-08-01T06:53:48;99622.19;;;18.59;100.00
16580;BME280;8402;51.466;6.806;2023-08-01T06:56:18;99638.66;;;18.77;100.00
16580;BME280;8402;51.466;6.806;2023-08-01T06:58:47;99638.66;;;18.87;100.00
16580;BME280;8402;51.466;6.806;2023-08-01T07:01:17;99639.00;;;18.96;100.00
16580;BME280;8402;51.466;6.806;2023-08-01T07:03:49;99633.88;;;18.98;100.00
16580;BME280;8402;51.466;6.806;2023-08-01T07:06:20;99629.19;;;18.95;100.00
16580;BME280;8402;51.466;6.806;2023-08-01T07:08:52;99644.09;;;19.02;100.00
16580;BME280;8402;51.466;6.806;2023-08-01T07:11:24;99641.75;;;18.96;100.00
16580;BME280;8402;51.466;6.806;2023-08-01T07:13:54;99644.88;;;18.98;100.00
16580;BME280;8402;51.466;6.806;2023-08-01T07:16:24;99647.22;;;19.04;100.00
16580;BME280;8402;51.466;6.806;2023-08-01T07:18:55;67388.69;;;-145.55;100.00
16580;BME280;8402;51.466;6.806;2023-08-01T07:21:25;99654.28;;;19.08;100.00
16580;BME280;8402;51.466;6.806;2023-08-01T07:23:58;99641.28;;;19.23;100.00
16580;BME280;8402;51.466;6.806;2023-08-01T07:26:28;99644.84;;;19.16;100.00
16580;BME280;8402;51.466;6.806;2023-08-01T07:28:58;99649.56;;;19.16;100.00
16580;BME280;8402;51.466;6.806;2023-08-01T07:31:28;99652.72;;;19.11;100.00
16580;BME280;8402;51.466;6.806;2023-08-01T07:33:58;99653.03;;;19.27;100.00
16580;BME280;8402;51.466;6.806;2023-08-01T07:36:28;99653.03;;;19.27;100.00
16580;BME280;8402;51.466;6.806;2023-08-01T07:39:00;99654.25;;;19.19;100.00
16580;BME280;8402;51.466;6.806;2023-08-01T07:41:30;99651.88;;;19.21;100.00
16580;BME280;8402;51.466;6.806;2023-08-01T07:44:01;99651.09;;;19.20;100.00
16580;BME280;8402;51.466;6.806;2023-08-01T07:46:32;99650.34;;;19.16;100.00
16580;BME280;8402;51.466;6.806;2023-08-01T07:49:02;99660.94;;;19.18;100.00
16580;BME280;8402;51.466;6.806;2023-08-01T07:51:32;99657.81;;;19.16;100.00
16580;BME280;8402;51.466;6.806;2023-08-01T07:54:05;99655.75;;;19.34;100.00
16580;BME280;8402;51.466;6.806;2023-08-01T07:56:35;99647.88;;;19.43;100.00
16580;BME280;8402;51.466;6.806;2023-08-01T07:59:05;99655.69;;;19.52;100.00
16580;BME280;8402;51.466;6.806;2023-08-01T08:01:35;99653.28;;;19.68;100.00
16580;BME280;8402;51.466;6.806;2023-08-01T08:04:07;99652.03;;;19.76;100.00
16580;BME280;8402;51.466;6.806;2023-08-01T08:06:37;99650.03;;;19.84;100.00
16580;BME280;8402;51.466;6.806;2023-08-01T08:09:09;99648.06;;;19.85;100.00
16580;BME280;8402;51.466;6.806;2023-08-01T08:11:39;99655.59;;;19.73;100.00
16580;BME280;8402;51.466;6.806;2023-08-01T08:14:09;99654.78;;;19.80;100.00
16580;BME280;8402;51.466;6.806;2023-08-01T08:16:41;99653.13;;;19.90;100.00
16580;BME280;8402;51.466;6.806;2023-08-01T08:19:11;99666.13;;;19.89;100.00
16580;BME280;8402;51.466;6.806;2023-08-01T08:21:41;99660.19;;;19.94;100.00
16580;BME280;8402;51.466;6.806;2023-08-01T08:24:14;99663.38;;;19.89;100.00
16580;BME280;8402;51.466;6.806;2023-08-01T08:26:44;99674.00;;;19.87;100.00
16580;BME280;8402;51.466;6.806;2023-08-01T08:29:14;99666.94;;;19.86;100.00
16580;BME280;8402;51.466;6.806;2023-08-01T08:31:44;99661.81;;;19.85;100.00
16580;BME280;8402;51.466;6.806;2023-08-01T08:34:13;99657.91;;;19.82;100.00
16580;BME280;8402;51.466;6.806;2023-08-01T08:36:43;99665.84;;;19.73;100.00
16580;BME280;8402;51.466;6.806;2023-08-01T08:39:16;99669.72;;;19.79;100.00
16580;BME280;8402;51.466;6.806;2023-08-01T08:41:47;99668.00;;;19.99;100.00
16580;BME280;8402;51.466;6.806;2023-08-01T08:44:20;99664.63;;;20.33;100.00
16580;BME280;8402;51.466;6.806;2023-08-01T08:46:52;99664.34;;;20.69;100.00
16580;BME280;8402;51.466;6.806;2023-08-01T08:49:24;99660.25;;;20.84;100.00
16580;BME280;8402;51.466;6.806;2023-08-01T08:51:56;99669.22;;;20.95;100.00
16580;BME280;8402;51.466;6.806;2023-08-01T08:54:29;99665.03;;;21.14;100.00
16580;BME280;8402;51.466;6.806;2023-08-01T08:57:00;99653.41;;;21.33;100.00
16580;BME280;8402;51.466;6.806;2023-08-01T08:59:31;99668.50;;;21.56;100.00
16580;BME280;8402;51.466;6.806;2023-08-01T09:02:01;99666.34;;;21.70;100.00
16580;BME280;8402;51.466;6.806;2023-08-01T09:04:31;99669.19;;;21.94;100.00
16580;BME280;8402;51.466;6.806;2023-08-01T09:07:06;99664.38;;;21.98;100.00
16580;BME280;8402;51.466;6.806;2023-08-01T09:09:40;99671.47;;;21.99;100.00
16580;BME280;8402;51.466;6.806;2023-08-01T09:12:10;99670.06;;;22.14;100.00
16580;BME280;8402;51.466;6.806;2023-08-01T09:14:42;99667.94;;;22.25;100.00
16580;BME280;8402;51.466;6.806;2023-08-01T09:17:12;99669.38;;;22.34;100.00
16580;BME280;8402;51.466;6.806;2023-08-01T09:19:43;99672.44;;;22.39;100.00
16580;BME280;8402;51.466;6.806;2023-08-01T09:22:13;99666.69;;;22.30;99.82
16580;BME280;8402;51.466;6.806;2023-08-01T09:24:53;99670.44;;;22.16;97.97
16580;BME280;8402;51.466;6.806;2023-08-01T09:27:23;99674.72;;;22.21;99.58
16580;BME280;8402;51.466;6.806;2023-08-01T09:29:53;99670.44;;;22.16;98.37
16580;BME280;8402;51.466;6.806;2023-08-01T09:32:22;99669.69;;;22.39;98.12
16580;BME280;8402;51.466;6.806;2023-08-01T09:34:58;99660.03;;;22.71;97.01
16580;BME280;8402;51.466;6.806;2023-08-01T09:37:40;99671.75;;;22.78;95.13
16580;BME280;8402;51.466;6.806;2023-08-01T09:40:13;99665.31;;;22.89;96.01
16580;BME280;8402;51.466;6.806;2023-08-01T09:42:44;99666.78;;;23.13;95.68
16580;BME280;8402;51.466;6.806;2023-08-01T09:45:15;99668.34;;;23.14;96.38
16580;BME280;8402;51.466;6.806;2023-08-01T09:47:45;99665.88;;;23.40;91.76
16580;BME280;8402;51.466;6.806;2023-08-01T09:50:20;99668.59;;;23.23;89.63
16580;BME280;8402;51.466;6.806;2023-08-01T09:52:51;99677.00;;;22.96;90.69
16580;BME280;8402;51.466;6.806;2023-08-01T09:55:26;99673.34;;;22.79;91.23
16580;BME280;8402;51.466;6.806;2023-08-01T09:58:00;99671.34;;;23.03;93.21
16580;BME280;8402;51.466;6.806;2023-08-01T10:00:33;99675.09;;;23.13;93.49
16580;BME280;8402;51.466;6.806;2023-08-01T10:03:03;99669.56;;;23.13;93.25
16580;BME280;8402;51.466;6.806;2023-08-01T10:05:35;99672.72;;;23.15;92.25
16580;BME280;8402;51.466;6.806;2023-08-01T10:08:07;99673.97;;;23.11;90.13
16580;BME280;8402;51.466;6.806;2023-08-01T10:10:41;99675.03;;;23.17;88.48
16580;BME280;8402;51.466;6.806;2023-08-01T10:13:13;99666.59;;;23.04;87.10
16580;BME280;8402;51.466;6.806;2023-08-01T10:15:43;99679.72;;;23.20;88.35
16580;BME280;8402;51.466;6.806;2023-08-01T10:18:15;99681.34;;;23.17;88.29
16580;BME280;8402;51.466;6.806;2023-08-01T10:20:47;99683.28;;;23.00;85.70
16580;BME280;8402;51.466;6.806;2023-08-01T10:23:17;99676.09;;;23.03;87.05
16580;BME280;8402;51.466;6.806;2023-08-01T10:25:51;99672.63;;;23.19;89.22
16580;BME280;8402;51.466;6.806;2023-08-01T10:28:31;99667.13;;;23.55;88.00
16580;BME280;8402;51.466;6.806;2023-08-01T10:31:09;99672.41;;;23.69;85.61
16580;BME280;8402;51.466;6.806;2023-08-01T10:33:40;99673.19;;;23.70;85.13
16580;BME280;8402;51.466;6.806;2023-08-01T10:36:15;99680.28;;;23.51;82.97
16580;BME280;8402;51.466;6.806;2023-08-01T10:38:50;99674.03;;;23.27;82.14
16580;BME280;8402;51.466;6.806;2023-08-01T10:41:25;99687.03;;;23.10;83.00
16580;BME280;8402;51.466;6.806;2023-08-01T10:44:09;99697.63;;;22.92;82.60
16580;BME280;8402;51.466;6.806;2023-08-01T10:46:47;99707.34;;;22.76;82.92
16580;BME280;8402;51.466;6.806;2023-08-01T10:49:18;99699.91;;;22.73;84.13
16580;BME280;8402;51.466;6.806;2023-08-01T10:51:50;99713.78;;;22.70;85.44
16580;BME280;8402;51.466;6.806;2023-08-01T10:54:21;99715.44;;;22.67;86.40
16580;BME280;8402;51.466;6.806;2023-08-01T10:56:56;99719.13;;;22.57;86.92
16580;BME280;8402;51.466;6.806;2023-08-01T10:59:27;99729.78;;;22.59;88.36
16580;BME280;8402;51.466;6.806;2023-08-01T11:01:58;99738.31;;;22.44;88.64
16580;BME280;8402;51.466;6.806;2023-08-01T11:04:28;99727.88;;;22.29;88.81
16580;BME280;8402;51.466;6.806;2023-08-01T11:06:58;99731.84;;;22.28;89.92
16580;BME280;8402;51.466;6.806;2023-08-01T11:09:28;99746.03;;;22.30;90.21
16580;BME280;8402;51.466;6.806;2023-08-01T11:12:02;99749.16;;;22.32;89.30
16580;BME280;8402;51.466;6.806;2023-08-01T11:14:32;99749.91;;;22.05;86.65
16580;BME280;8402;51.466;6.806;2023-08-01T11:17:02;99744.00;;;22.03;88.27
16580;BME280;8402;51.466;6.806;2023-08-01T11:19:33;99730.38;;;22.19;88.91
16580;BME280;8402;51.466;6.806;2023-08-01T11:22:09;99733.91;;;22.47;87.80
16580;BME280;8402;51.466;6.806;2023-08-01T11:24:39;99752.56;;;22.93;89.19
16580;BME280;8402;51.466;6.806;2023-08-01T11:27:15;99744.53;;;23.22;88.01
16580;BME280;8402;51.466;6.806;2023-08-01T11:29:45;99763.50;;;23.00;83.93
16580;BME280;8402;51.466;6.806;2023-08-01T11:32:16;99755.66;;;22.72;84.57
16580;BME280;8402;51.466;6.806;2023-08-01T11:34:48;99752.50;;;22.46;83.68
16580;BME280;8402;51.466;6.806;2023-08-01T11:37:19;99761.97;;;22.18;82.88
16580;BME280;8402;51.466;6.806;2023-08-01T11:39:50;99766.41;;;22.12;84.74
16580;BME280;8402;51.466;6.806;2023-08-01T11:42:23;99759.69;;;22.13;86.24
16580;BME280;8402;51.466;6.806;2023-08-01T11:44:52;99749.97;;;22.29;87.31
16580;BME280;8402;51.466;6.806;2023-08-01T11:47:23;99756.25;;;22.33;86.40
16580;BME280;8402;51.466;6.806;2023-08-01T11:49:53;99757.00;;;22.37;86.35
16580;BME280;8402;51.466;6.806;2023-08-01T11:52:23;99760.88;;;22.39;86.93
16580;BME280;8402;51.466;6.806;2023-08-01T11:54:54;99757.81;;;22.34;86.69
16580;BME280;8402;51.466;6.806;2023-08-01T11:57:27;99759.47;;;22.28;85.21
16580;BME280;8402;51.466;6.806;2023-08-01T11:59:57;99768.97;;;22.27;86.37
16580;BME280;8402;51.466;6.806;2023-08-01T12:02:28;99773.78;;;22.22;86.38
16580;BME280;8402;51.466;6.806;2023-08-01T12:04:59;99772.34;;;22.07;86.08
16580;BME280;8402;51.466;6.806;2023-08-01T12:07:29;99773.97;;;22.05;87.53
16580;BME280;8402;51.466;6.806;2023-08-01T12:10:00;99774.50;;;21.96;87.64
16580;BME280;8402;51.466;6.806;2023-08-01T12:12:44;99779.25;;;21.95;87.09
16580;BME280;8402;51.466;6.806;2023-08-01T12:15:15;99770.06;;;22.02;88.67
16580;BME280;8402;51.466;6.806;2023-08-01T12:17:45;99779.06;;;22.10;89.07
16580;BME280;8402;51.466;6.806;2023-08-01T12:20:15;99784.09;;;22.18;89.36
16580;BME280;8402;51.466;6.806;2023-08-01T12:22:45;99792.00;;;22.16;89.76
16580;BME280;8402;51.466;6.806;2023-08-01T12:25:15;99788.41;;;22.19;89.68
16580;BME280;8402;51.466;6.806;2023-08-01T12:27:47;99792.28;;;22.25;89.84
16580;BME280;8402;51.466;6.806;2023-08-01T12:30:17;99797.44;;;22.23;90.24
16580;BME280;8402;51.466;6.806;2023-08-01T12:32:47;99791.16;;;22.19;90.13
16580;BME280;8402;51.466;6.806;2023-08-01T12:35:18;99787.31;;;22.13;89.47
16580;BME280;8402;51.466;6.806;2023-08-01T12:37:48;99787.38;;;22.06;88.52
16580;BME280;8402;51.466;6.806;2023-08-01T12:40:18;99796.78;;;22.12;89.29
16580;BME280;8402;51.466;6.806;2023-08-01T12:42:51;99790.81;;;22.17;88.52
16580;BME280;8402;51.466;6.806;2023-08-01T12:45:21;99783.84;;;22.36;87.48
16580;BME280;8402;51.466;6.806;2023-08-01T12:47:51;99789.84;;;22.82;87.48
16580;BME280;8402;51.466;6.806;2023-08-01T12:50:21;99787.22;;;23.21;86.25
16580;BME280;8402;51.466;6.806;2023-08-01T12:52:50;99789.03;;;23.51;86.00
16580;BME280;8402;51.466;6.806;2023-08-01T12:55:20;99787.72;;;23.79;83.92
16580;BME280;8402;51.466;6.806;2023-08-01T12:57:53;99792.97;;;23.94;79.60
16580;BME280;8402;51.466;6.806;2023-08-01T13:00:23;99785.22;;;24.05;79.61
16580;BME280;8402;51.466;6.806;2023-08-01T13:02:53;99779.69;;;24.21;80.43
16580;BME280;8402;51.466;6.806;2023-08-01T13:05:23;99786.66;;;24.29;79.19
16580;BME280;8402;51.466;6.806;2023-08-01T13:07:53;99784.75;;;24.26;78.53
16580;BME280;8402;51.466;6.806;2023-08-01T13:10:23;99784.00;;;24.06;78.65
16580;BME280;8402;51.466;6.806;2023-08-01T13:12:55;99790.91;;;23.78;78.44
16580;BME280;8402;51.466;6.806;2023-08-01T13:15:26;99790.53;;;23.56;79.15
16580;BME280;8402;51.466;6.806;2023-08-01T13:17:56;99775.69;;;23.46;80.29
16580;BME280;8402;51.466;6.806;2023-08-01T13:20:26;99778.09;;;23.44;81.49
16580;BME280;8402;51.466;6.806;2023-08-01T13:22:59;99782.13;;;23.40;80.12